Time;durP1;ratioP1;P1;durP2;ratioP2;P2;SDS_P1;SDS_P2;PMS_P1;PMS_P2;Temp;Humidity;BMP_temperature;BMP_pressure;BME280_temperature;BME280_humidity;BME280_pressure;Samples;Min_cycle;Max_cycle;Signal;HPM_P1;HPM_P2
2021/05/02 00:00:28;;;;;;;;;;;18.80;58.60;;;;;;1020407;28;20349;-73
2021/05/02 00:00:59;;;;;;;;;;;18.90;58.90;;;;;;1022019;29;19914;-74
2021/05/02 00:01:30;;;;;;;;;;;18.90;59.30;;;;;;1024410;28;19965;-74
2021/05/02 00:02:01;;;;;;;;;;;19.00;58.70;;;;;;1024163;29;19942;-76
2021/05/02 00:02:33;;;;;;;;;;;18.90;58.10;;;;;;1024337;29;19989;-74
2021/05/02 00:03:05;;;;;;;;;;;19.00;57.30;;;;;;1025373;28;20011;-73
2021/05/02 00:03:36;;;;;;;;;;;19.00;56.70;;;;;;1024092;28;19926;-74
2021/05/02 00:04:07;;;;;;;;;;;19.10;56.00;;;;;;1025084;28;20252;-76
2021/05/02 00:04:38;;;;;;;;;;;19.10;55.90;;;;;;1025100;28;20013;-74
2021/05/02 00:05:10;;;;;;;;;;;19.10;56.20;;;;;;1024591;28;19913;-74
2021/05/02 00:05:41;;;;;;;;;;;19.10;56.40;;;;;;1024362;29;19906;-74
2021/05/02 00:06:12;;;;;;;;;;;19.10;57.10;;;;;;1044880;28;19951;-74
2021/05/02 00:06:43;;;;;;;;;;;19.10;56.10;;;;;;1048078;28;19969;-76
2021/05/02 00:07:14;;;;;;;;;;;19.10;55.80;;;;;;1046387;28;20328;-74
2021/05/02 00:07:45;;;;;;;;;;;19.10;55.80;;;;;;1045278;28;19917;-74
2021/05/02 00:08:17;;;;;;;;;;;19.10;55.50;;;;;;1026049;28;19921;-73
2021/05/02 00:08:48;;;;;;;;;;;19.10;55.60;;;;;;1027988;28;20355;-73
2021/05/02 00:09:19;;;;;;;;;;;19.10;55.60;;;;;;1028646;28;19911;-75
2021/05/02 00:09:50;;;;;;;;;;;19.20;55.40;;;;;;1028424;28;20478;-74
2021/05/02 00:10:22;;;;;;;;;;;19.20;55.40;;;;;;1028425;28;19914;-76
2021/05/02 00:10:53;;;;;;;;;;;19.10;55.50;;;;;;1022164;28;19915;-75
2021/05/02 00:11:24;;;;;;;;;;;19.10;55.90;;;;;;1022526;29;19911;-75
2021/05/02 00:11:56;;;;;;;;;;;19.20;55.30;;;;;;1024312;28;19925;-74
2021/05/02 00:12:27;;;;;;;;;;;19.10;55.50;;;;;;1020853;28;20348;-74
2021/05/02 00:13:00;;;;;;;;;;;19.10;55.60;;;;;;1020440;29;19915;-75
2021/05/02 00:13:31;;;;;;;;;;;19.10;55.40;;;;;;1020469;29;20415;-75
2021/05/02 00:14:03;;;;;;;;;;;19.20;55.40;;;;;;1020921;29;19911;-74
2021/05/02 00:14:34;;;;;;;;;;;19.10;55.30;;;;;;1024001;28;19946;-75
2021/05/02 00:15:06;;;;;;;;;;;19.10;55.20;;;;;;1020459;28;19921;-76
2021/05/02 00:15:37;;;;;;;;;;;19.10;55.40;;;;;;1016486;28;19919;-75
2021/05/02 00:16:08;;;;;;;;;;;19.20;56.30;;;;;;1037606;28;20335;-76
2021/05/02 00:16:40;;;;;;;;;;;19.20;55.50;;;;;;1041247;28;20343;-74
2021/05/02 00:17:11;;;;;;;;;;;19.20;55.50;;;;;;1041607;28;19916;-74
2021/05/02 00:17:44;;;;;;;;;;;19.20;55.20;;;;;;1043548;28;19909;-74
2021/05/02 00:18:15;;;;;;;;;;;19.20;54.70;;;;;;1024951;28;20423;-74
2021/05/02 00:18:47;;;;;;;;;;;19.20;54.60;;;;;;1028538;28;19910;-75
2021/05/02 00:19:22;;;;;;;;;;;19.10;54.60;;;;;;1031152;28;19910;-74
2021/05/02 00:19:53;;;;;;;;;;;19.10;54.50;;;;;;1029176;28;19964;-74
2021/05/02 00:20:25;;;;;;;;;;;19.10;54.60;;;;;;1045229;28;19953;-74
2021/05/02 00:20:56;;;;;;;;;;;19.20;54.50;;;;;;1026951;28;20006;-74
2021/05/02 00:21:27;;;;;;;;;;;19.10;54.10;;;;;;1024523;29;20245;-77
2021/05/02 00:21:58;;;;;;;;;;;19.10;54.30;;;;;;1024052;28;19933;-74
2021/05/02 00:22:30;;;;;;;;;;;19.10;54.50;;;;;;1024236;29;19918;-74
2021/05/02 00:23:05;;;;;;;;;;;19.00;54.70;;;;;;1022346;29;19914;-75
2021/05/02 00:23:37;;;;;;;;;;;19.00;55.00;;;;;;1024354;28;19921;-74
2021/05/02 00:24:08;;;;;;;;;;;19.00;55.50;;;;;;1017657;29;20010;-74
2021/05/02 00:24:39;;;;;;;;;;;18.90;56.00;;;;;;1019268;28;20354;-74
2021/05/02 00:25:11;;;;;;;;;;;18.90;56.20;;;;;;1020603;28;19953;-74
2021/05/02 00:25:42;;;;;;;;;;;18.90;56.60;;;;;;1024812;28;19919;-74
2021/05/02 00:26:13;;;;;;;;;;;18.90;56.70;;;;;;1025730;28;19914;-74
2021/05/02 00:26:44;;;;;;;;;;;18.90;56.60;;;;;;1023345;28;19921;-74
2021/05/02 00:27:16;;;;;;;;;;;18.80;56.80;;;;;;1022354;28;19922;-74
2021/05/02 00:27:47;;;;;;;;;;;18.90;56.50;;;;;;1021140;28;19980;-74
2021/05/02 00:28:18;;;;;;;;;;;18.90;56.40;;;;;;1027806;28;19910;-74
2021/05/02 00:28:51;;;;;;;;;;;18.90;56.00;;;;;;1028498;28;19933;-74
2021/05/02 00:29:22;;;;;;;;;;;18.90;55.30;;;;;;1031782;28;19910;-74
2021/05/02 00:29:53;;;;;;;;;;;18.80;55.70;;;;;;1019238;28;19915;-74
2021/05/02 00:30:25;;;;;;;;;;;18.80;56.00;;;;;;1016156;28;19911;-74
2021/05/02 00:30:57;;;;;;;;;;;18.80;56.30;;;;;;1012232;28;19922;-74
2021/05/02 00:31:28;;;;;;;;;;;18.90;56.70;;;;;;1015459;28;19916;-74
2021/05/02 00:32:00;;;;;;;;;;;18.90;56.20;;;;;;1020371;29;19997;-74
2021/05/02 00:32:32;;;;;;;;;;;18.90;55.20;;;;;;1019178;28;20270;-74
2021/05/02 00:33:03;;;;;;;;;;;18.90;55.10;;;;;;1021770;28;19914;-74
2021/05/02 00:33:35;;;;;;;;;;;18.90;55.00;;;;;;1021399;29;19926;-74
2021/05/02 00:34:06;;;;;;;;;;;18.90;55.10;;;;;;1020683;28;19968;-74
2021/05/02 00:34:38;;;;;;;;;;;18.80;55.20;;;;;;1023909;28;19915;-74
2021/05/02 00:35:09;;;;;;;;;;;18.70;55.50;;;;;;1024715;28;19957;-75
2021/05/02 00:35:41;;;;;;;;;;;18.70;55.70;;;;;;1024344;29;19997;-76
2021/05/02 00:36:12;;;;;;;;;;;18.70;55.60;;;;;;1024011;28;19918;-73
2021/05/02 00:36:43;;;;;;;;;;;18.70;55.50;;;;;;1024045;28;19910;-75
2021/05/02 00:37:15;;;;;;;;;;;18.70;55.50;;;;;;1023760;28;20414;-73
2021/05/02 00:37:46;;;;;;;;;;;18.70;55.50;;;;;;1020330;29;19938;-73
2021/05/02 00:38:17;;;;;;;;;;;18.70;55.50;;;;;;1020311;29;20257;-73
2021/05/02 00:38:48;;;;;;;;;;;18.70;55.30;;;;;;1024374;29;19910;-72
2021/05/02 00:39:20;;;;;;;;;;;18.80;55.40;;;;;;1026613;28;20368;-73
2021/05/02 00:39:52;;;;;;;;;;;18.80;55.60;;;;;;1026045;28;19915;-75
2021/05/02 00:40:37;;;;;;;;;;;18.70;55.60;;;;;;1021524;28;19910;-75
2021/05/02 00:41:13;;;;;;;;;;;18.70;55.60;;;;;;1021903;28;20010;-75
2021/05/02 00:41:45;;;;;;;;;;;18.70;55.40;;;;;;1036175;28;19911;-75
2021/05/02 00:42:21;;;;;;;;;;;18.70;55.40;;;;;;1032587;28;19910;-75
2021/05/02 00:43:04;;;;;;;;;;;18.70;55.10;;;;;;1026574;28;19958;-75
2021/05/02 00:43:44;;;;;;;;;;;18.70;55.10;;;;;;1024247;28;19918;-75
2021/05/02 00:44:33;;;;;;;;;;;18.80;55.10;;;;;;1022351;28;20265;-75
2021/05/02 00:45:05;;;;;;;;;;;18.70;55.20;;;;;;1016774;28;19911;-75
2021/05/02 00:45:57;;;;;;;;;;;18.70;55.10;;;;;;1039457;28;19979;-75
2021/05/02 00:46:35;;;;;;;;;;;18.70;55.10;;;;;;1044855;28;19909;-75
2021/05/02 00:47:15;;;;;;;;;;;18.60;55.00;;;;;;1044960;28;19939;-75
2021/05/02 00:47:48;;;;;;;;;;;18.50;55.30;;;;;;1040958;28;19909;-74
2021/05/02 00:48:25;;;;;;;;;;;18.50;55.50;;;;;;1026420;28;19909;-75
2021/05/02 00:48:56;;;;;;;;;;;18.40;55.60;;;;;;1020494;28;19945;-75
2021/05/02 00:49:46;;;;;;;;;;;18.30;55.60;;;;;;1040965;28;19920;-75
2021/05/02 00:50:20;;;;;;;;;;;18.40;55.80;;;;;;1025674;28;19910;-75
2021/05/02 00:51:00;;;;;;;;;;;18.10;56.00;;;;;;1043951;28;20012;-75
2021/05/02 00:51:37;;;;;;;;;;;18.10;56.20;;;;;;1022854;29;19924;-75
2021/05/02 00:52:15;;;;;;;;;;;18.10;56.20;;;;;;1016620;29;20403;-75
2021/05/02 00:52:50;;;;;;;;;;;18.10;56.30;;;;;;1019129;28;19907;-75
2021/05/02 00:53:44;;;;;;;;;;;18.10;56.40;;;;;;1043032;28;19905;-75
2021/05/02 00:54:24;;;;;;;;;;;18.00;56.60;;;;;;1030986;28;19991;-76
2021/05/02 00:55:01;;;;;;;;;;;18.00;56.80;;;;;;1024508;28;19910;-76
2021/05/02 00:55:45;;;;;;;;;;;18.00;56.80;;;;;;1026545;28;19953;-76
2021/05/02 00:56:21;;;;;;;;;;;17.90;57.00;;;;;;1028160;28;19910;-75
2021/05/02 00:56:56;;;;;;;;;;;17.80;57.30;;;;;;1028488;28;19917;-75
2021/05/02 00:57:29;;;;;;;;;;;17.80;57.60;;;;;;1026011;28;19906;-75
2021/05/02 00:58:02;;;;;;;;;;;17.80;57.60;;;;;;1024068;28;19949;-75
2021/05/02 00:58:42;;;;;;;;;;;17.80;57.80;;;;;;1023583;29;20012;-76
2021/05/02 00:59:19;;;;;;;;;;;17.70;58.10;;;;;;1023413;29;19911;-75
2021/05/02 00:59:55;;;;;;;;;;;17.60;58.30;;;;;;1026388;28;20264;-75
2021/05/02 01:00:29;;;;;;;;;;;17.70;58.40;;;;;;1024114;28;19906;-75
2021/05/02 01:01:02;;;;;;;;;;;17.70;58.80;;;;;;1027908;28;19949;-75
2021/05/02 01:01:37;;;;;;;;;;;17.80;58.30;;;;;;1045093;28;20249;-75
2021/05/02 01:02:10;;;;;;;;;;;17.80;58.20;;;;;;1044865;28;19911;-75
2021/05/02 01:02:42;;;;;;;;;;;17.80;58.20;;;;;;1044666;28;19959;-75
2021/05/02 01:03:13;;;;;;;;;;;17.80;57.80;;;;;;1044973;28;19939;-76
2021/05/02 01:03:46;;;;;;;;;;;17.80;57.90;;;;;;1045082;28;19927;-75
2021/05/02 01:04:19;;;;;;;;;;;17.70;57.90;;;;;;1045633;28;20289;-75
2021/05/02 01:04:53;;;;;;;;;;;17.80;57.50;;;;;;1049501;28;20330;-75
2021/05/02 01:05:24;;;;;;;;;;;17.80;57.40;;;;;;1031515;28;20013;-75
2021/05/02 01:05:57;;;;;;;;;;;17.80;57.00;;;;;;1028413;28;19906;-75
2021/05/02 01:06:29;;;;;;;;;;;17.90;57.20;;;;;;1028305;28;19942;-75
2021/05/02 01:07:02;;;;;;;;;;;17.80;57.20;;;;;;1024057;29;19906;-75
2021/05/02 01:07:37;;;;;;;;;;;17.80;57.70;;;;;;1024278;29;19989;-75
2021/05/02 01:08:09;;;;;;;;;;;17.80;58.00;;;;;;1023961;28;20006;-75
2021/05/02 01:08:41;;;;;;;;;;;17.80;58.00;;;;;;1029102;28;20013;-76
2021/05/02 01:09:15;;;;;;;;;;;17.90;57.70;;;;;;1053200;28;19974;-75
2021/05/02 01:09:49;;;;;;;;;;;17.90;58.00;;;;;;1054066;28;20249;-75
2021/05/02 01:10:20;;;;;;;;;;;17.90;57.10;;;;;;1057384;28;19912;-75
2021/05/02 01:10:55;;;;;;;;;;;17.80;57.30;;;;;;1046248;28;20308;-75
2021/05/02 01:11:27;;;;;;;;;;;17.90;57.50;;;;;;1031246;28;20247;-76
2021/05/02 01:12:00;;;;;;;;;;;17.90;57.40;;;;;;1032126;28;19910;-75
2021/05/02 01:12:31;;;;;;;;;;;17.90;56.90;;;;;;1032024;28;19914;-76
2021/05/02 01:13:05;;;;;;;;;;;18.00;56.60;;;;;;1051639;28;19908;-75
2021/05/02 01:13:37;;;;;;;;;;;18.00;56.30;;;;;;1053466;28;19946;-77
2021/05/02 01:14:11;;;;;;;;;;;18.00;56.30;;;;;;1035845;28;19953;-75
2021/05/02 01:14:45;;;;;;;;;;;18.00;56.30;;;;;;1028272;28;20010;-77
2021/05/02 01:15:21;;;;;;;;;;;18.00;56.40;;;;;;1028429;28;20407;-75
2021/05/02 01:15:58;;;;;;;;;;;18.00;56.60;;;;;;1028447;28;20302;-76
2021/05/02 01:16:31;;;;;;;;;;;18.00;56.30;;;;;;1028218;28;19933;-76
2021/05/02 01:17:03;;;;;;;;;;;18.00;56.00;;;;;;1033980;28;19908;-76
2021/05/02 01:17:38;;;;;;;;;;;17.90;56.30;;;;;;1031782;28;20374;-75
2021/05/02 01:18:09;;;;;;;;;;;17.90;56.50;;;;;;1033516;28;19910;-75
2021/05/02 01:18:41;;;;;;;;;;;17.90;56.50;;;;;;1053417;28;19912;-77
2021/05/02 01:19:12;;;;;;;;;;;17.90;56.30;;;;;;1055289;28;19919;-77
2021/05/02 01:19:45;;;;;;;;;;;17.90;56.30;;;;;;1057608;28;20053;-76
2021/05/02 01:20:17;;;;;;;;;;;17.90;56.30;;;;;;1046488;28;20253;-77
2021/05/02 01:20:48;;;;;;;;;;;17.80;56.50;;;;;;1052032;28;19931;-76
2021/05/02 01:21:20;;;;;;;;;;;17.80;56.70;;;;;;1049990;28;19920;-77
2021/05/02 01:21:51;;;;;;;;;;;17.80;56.70;;;;;;1050030;28;19968;-77
2021/05/02 01:22:29;;;;;;;;;;;17.80;56.70;;;;;;1050434;28;19936;-76
2021/05/02 01:23:08;;;;;;;;;;;17.80;56.70;;;;;;1029931;28;19910;-79
2021/05/02 01:23:40;;;;;;;;;;;17.70;57.00;;;;;;1032606;28;19921;-78
2021/05/02 01:24:11;;;;;;;;;;;17.70;57.20;;;;;;1031392;28;20231;-76
2021/05/02 01:24:46;;;;;;;;;;;17.70;57.30;;;;;;1032242;28;19970;-77
2021/05/02 01:25:21;;;;;;;;;;;17.70;57.30;;;;;;1030895;28;19914;-78
2021/05/02 01:25:53;;;;;;;;;;;17.60;57.30;;;;;;1053097;28;19916;-76
2021/05/02 01:26:25;;;;;;;;;;;17.60;57.30;;;;;;1050567;28;20288;-76
2021/05/02 01:26:56;;;;;;;;;;;17.60;57.10;;;;;;1048764;28;19919;-75
2021/05/02 01:27:30;;;;;;;;;;;17.70;57.10;;;;;;1046705;28;19909;-75
2021/05/02 01:28:02;;;;;;;;;;;17.60;57.10;;;;;;1028884;28;19911;-75
2021/05/02 01:28:34;;;;;;;;;;;17.50;57.10;;;;;;1053950;28;19908;-75
2021/05/02 01:29:06;;;;;;;;;;;17.50;57.20;;;;;;1057530;28;19908;-75
2021/05/02 01:29:37;;;;;;;;;;;17.40;57.40;;;;;;1052764;28;19920;-75
2021/05/02 01:30:09;;;;;;;;;;;17.40;57.60;;;;;;1048973;28;19977;-75
2021/05/02 01:30:41;;;;;;;;;;;17.40;57.80;;;;;;1031050;28;19926;-74
2021/05/02 01:31:12;;;;;;;;;;;17.40;57.90;;;;;;1031362;28;19920;-75
2021/05/02 01:31:43;;;;;;;;;;;17.40;57.80;;;;;;1031778;28;19974;-75
2021/05/02 01:32:14;;;;;;;;;;;17.30;57.80;;;;;;1052429;28;19916;-75
2021/05/02 01:32:46;;;;;;;;;;;17.30;57.80;;;;;;1053275;28;19919;-75
2021/05/02 01:33:17;;;;;;;;;;;17.30;57.90;;;;;;1047770;28;19923;-74
2021/05/02 01:33:48;;;;;;;;;;;17.20;58.00;;;;;;1045605;28;20007;-75
2021/05/02 01:34:19;;;;;;;;;;;17.10;58.10;;;;;;1023327;28;19922;-76
2021/05/02 01:34:50;;;;;;;;;;;17.10;58.10;;;;;;1023755;28;19941;-75
2021/05/02 01:35:22;;;;;;;;;;;17.10;58.20;;;;;;1027936;28;19930;-75
2021/05/02 01:35:53;;;;;;;;;;;17.10;58.20;;;;;;1031695;28;20339;-76
2021/05/02 01:36:24;;;;;;;;;;;17.10;58.40;;;;;;1032246;28;19910;-76
2021/05/02 01:36:55;;;;;;;;;;;17.00;58.40;;;;;;1030503;28;20447;-75
2021/05/02 01:37:26;;;;;;;;;;;17.00;58.60;;;;;;1029255;28;20393;-75
2021/05/02 01:37:57;;;;;;;;;;;17.00;58.60;;;;;;1028024;28;19933;-75
2021/05/02 01:38:30;;;;;;;;;;;17.00;58.60;;;;;;1027998;28;20249;-77
2021/05/02 01:39:03;;;;;;;;;;;16.90;58.60;;;;;;1028143;28;19932;-78
2021/05/02 01:39:35;;;;;;;;;;;17.00;58.80;;;;;;1029129;28;20290;-75
2021/05/02 01:40:07;;;;;;;;;;;16.90;59.00;;;;;;1031936;28;19928;-75
2021/05/02 01:40:38;;;;;;;;;;;16.90;59.00;;;;;;1033464;28;19913;-75
2021/05/02 01:41:10;;;;;;;;;;;16.90;59.00;;;;;;1031718;28;19976;-77
2021/05/02 01:41:41;;;;;;;;;;;16.90;59.00;;;;;;1034301;28;20216;-75
2021/05/02 01:42:12;;;;;;;;;;;17.00;58.90;;;;;;1033067;28;19925;-75
2021/05/02 01:42:43;;;;;;;;;;;16.90;58.80;;;;;;1028065;28;19917;-76
2021/05/02 01:43:14;;;;;;;;;;;16.90;58.90;;;;;;1028225;28;20507;-76
2021/05/02 01:43:45;;;;;;;;;;;17.00;58.60;;;;;;1029366;28;20012;-76
2021/05/02 01:44:16;;;;;;;;;;;17.00;58.60;;;;;;1026191;28;19962;-75
2021/05/02 01:44:47;;;;;;;;;;;17.10;58.60;;;;;;1027497;28;19926;-76
2021/05/02 01:45:18;;;;;;;;;;;17.00;58.60;;;;;;1028636;28;20010;-76
2021/05/02 01:45:49;;;;;;;;;;;17.00;58.60;;;;;;1035045;28;19949;-78
2021/05/02 01:46:25;;;;;;;;;;;17.00;58.50;;;;;;1030159;28;19921;-76
2021/05/02 01:46:58;;;;;;;;;;;17.00;58.20;;;;;;1053861;28;20335;-75
2021/05/02 01:47:31;;;;;;;;;;;17.00;58.40;;;;;;1057553;28;19907;-75
2021/05/02 01:48:04;;;;;;;;;;;17.00;58.60;;;;;;1057388;28;19919;-75
2021/05/02 01:48:37;;;;;;;;;;;17.00;58.50;;;;;;1046285;28;20345;-76
2021/05/02 01:49:13;;;;;;;;;;;17.00;58.50;;;;;;1031848;28;20020;-75
2021/05/02 01:49:53;;;;;;;;;;;17.00;58.40;;;;;;1027491;28;19922;-77
2021/05/02 01:50:25;;;;;;;;;;;17.00;58.20;;;;;;1028257;28;19937;-75
2021/05/02 01:51:04;;;;;;;;;;;17.00;58.20;;;;;;1028207;28;19910;-75
2021/05/02 01:51:36;;;;;;;;;;;17.00;58.30;;;;;;1033999;28;19987;-77
2021/05/02 01:52:08;;;;;;;;;;;17.10;58.20;;;;;;1029723;28;19906;-75
2021/05/02 01:52:46;;;;;;;;;;;17.10;58.00;;;;;;1032137;28;19906;-75
2021/05/02 01:53:17;;;;;;;;;;;17.20;57.90;;;;;;1027366;28;19914;-75
2021/05/02 01:53:48;;;;;;;;;;;17.20;58.00;;;;;;1025264;28;19911;-75
2021/05/02 01:54:20;;;;;;;;;;;17.20;58.00;;;;;;1028109;28;19906;-77
2021/05/02 01:54:51;;;;;;;;;;;17.10;57.80;;;;;;1024794;28;19910;-77
2021/05/02 01:55:22;;;;;;;;;;;17.10;57.60;;;;;;1048028;28;19916;-75
2021/05/02 01:55:54;;;;;;;;;;;17.10;57.60;;;;;;1050533;28;20309;-77
2021/05/02 01:56:25;;;;;;;;;;;17.10;57.70;;;;;;1052159;28;19959;-76
2021/05/02 01:56:56;;;;;;;;;;;17.10;57.60;;;;;;1050758;28;19999;-75
2021/05/02 01:57:29;;;;;;;;;;;17.10;57.70;;;;;;1032215;28;19906;-75
2021/05/02 01:58:00;;;;;;;;;;;17.10;57.80;;;;;;1036111;28;19921;-75
2021/05/02 01:58:32;;;;;;;;;;;17.10;57.70;;;;;;1056645;28;19969;-75
2021/05/02 01:59:03;;;;;;;;;;;17.10;57.70;;;;;;1054084;28;19950;-75
2021/05/02 01:59:36;;;;;;;;;;;17.10;57.90;;;;;;1055632;28;20337;-76
2021/05/02 02:00:10;;;;;;;;;;;17.10;58.00;;;;;;1045735;28;20039;-75
2021/05/02 02:00:45;;;;;;;;;;;17.10;58.20;;;;;;1029675;28;20005;-76
2021/05/02 02:01:18;;;;;;;;;;;17.10;58.20;;;;;;1031480;28;19984;-75
2021/05/02 02:01:49;;;;;;;;;;;17.10;58.30;;;;;;1029090;28;19993;-75
2021/05/02 02:02:21;;;;;;;;;;;17.10;58.20;;;;;;1031036;28;20393;-76
2021/05/02 02:02:52;;;;;;;;;;;17.10;58.20;;;;;;1032563;28;19905;-76
2021/05/02 02:03:24;;;;;;;;;;;17.10;58.20;;;;;;1052383;28;20234;-76
2021/05/02 02:03:57;;;;;;;;;;;17.00;58.30;;;;;;1052951;28;19908;-78
2021/05/02 02:04:29;;;;;;;;;;;17.10;58.20;;;;;;1053964;28;19904;-77
2021/05/02 02:05:02;;;;;;;;;;;17.00;58.10;;;;;;1052742;28;19908;-76
2021/05/02 02:05:33;;;;;;;;;;;17.10;58.10;;;;;;1030672;28;19906;-75
2021/05/02 02:06:05;;;;;;;;;;;17.10;57.80;;;;;;1032481;28;19913;-76
2021/05/02 02:06:36;;;;;;;;;;;17.10;57.80;;;;;;1031539;28;19914;-76
2021/05/02 02:07:07;;;;;;;;;;;17.10;57.80;;;;;;1028735;28;19971;-76
2021/05/02 02:07:39;;;;;;;;;;;17.10;57.90;;;;;;1028685;28;19907;-76
2021/05/02 02:08:10;;;;;;;;;;;17.10;58.00;;;;;;1025266;28;19917;-76
2021/05/02 02:08:42;;;;;;;;;;;17.10;57.60;;;;;;1028352;28;20291;-77
2021/05/02 02:09:13;;;;;;;;;;;17.10;57.40;;;;;;1024441;28;19911;-77
2021/05/02 02:09:44;;;;;;;;;;;17.00;57.50;;;;;;1046255;28;19920;-76
2021/05/02 02:10:20;;;;;;;;;;;17.00;57.60;;;;;;1053744;28;19970;-77
2021/05/02 02:10:52;;;;;;;;;;;17.00;57.70;;;;;;1053193;28;19981;-77
2021/05/02 02:11:23;;;;;;;;;;;17.00;57.80;;;;;;1048538;28;20303;-76
2021/05/02 02:11:54;;;;;;;;;;;16.90;57.70;;;;;;1032555;28;19910;-77
2021/05/02 02:12:25;;;;;;;;;;;16.90;57.70;;;;;;1031866;28;19912;-76
2021/05/02 02:12:56;;;;;;;;;;;16.90;57.70;;;;;;1045561;28;20334;-75
2021/05/02 02:13:28;;;;;;;;;;;16.90;57.70;;;;;;1036866;28;20009;-76
2021/05/02 02:13:59;;;;;;;;;;;16.90;57.50;;;;;;1036474;28;19910;-77
2021/05/02 02:14:30;;;;;;;;;;;16.80;57.60;;;;;;1031929;28;19949;-76
2021/05/02 02:15:01;;;;;;;;;;;16.80;57.60;;;;;;1032418;28;19918;-76
2021/05/02 02:15:32;;;;;;;;;;;16.80;57.80;;;;;;1032759;28;19925;-76
2021/05/02 02:16:07;;;;;;;;;;;16.70;57.90;;;;;;1032446;28;19921;-76
2021/05/02 02:16:41;;;;;;;;;;;16.70;58.00;;;;;;1033565;28;19928;-76
2021/05/02 02:17:12;;;;;;;;;;;16.70;58.10;;;;;;1032629;28;19921;-76
2021/05/02 02:17:43;;;;;;;;;;;16.70;58.10;;;;;;1032770;28;19941;-76
2021/05/02 02:18:15;;;;;;;;;;;16.70;58.20;;;;;;1032696;28;20326;-76
2021/05/02 02:18:48;;;;;;;;;;;16.70;58.20;;;;;;1032653;28;19965;-76
2021/05/02 02:19:19;;;;;;;;;;;16.70;58.40;;;;;;1032667;28;20332;-76
2021/05/02 02:19:50;;;;;;;;;;;16.70;58.30;;;;;;1032847;28;20317;-76
2021/05/02 02:20:22;;;;;;;;;;;16.70;58.30;;;;;;1028718;28;19910;-77
2021/05/02 02:20:54;;;;;;;;;;;16.70;58.20;;;;;;1028180;28;19968;-76
2021/05/02 02:21:26;;;;;;;;;;;16.60;58.30;;;;;;1028606;28;20271;-77
2021/05/02 02:21:57;;;;;;;;;;;16.60;58.40;;;;;;1029059;28;20304;-76
2021/05/02 02:22:28;;;;;;;;;;;16.50;58.50;;;;;;1032742;28;20347;-76
2021/05/02 02:23:01;;;;;;;;;;;16.50;58.50;;;;;;1032962;28;19993;-76
2021/05/02 02:23:34;;;;;;;;;;;16.50;58.50;;;;;;1032467;28;19914;-76
2021/05/02 02:24:05;;;;;;;;;;;16.40;58.50;;;;;;1028465;28;19910;-76
2021/05/02 02:24:45;;;;;;;;;;;16.50;58.60;;;;;;1024606;28;19915;-76
2021/05/02 02:25:16;;;;;;;;;;;16.40;58.80;;;;;;1047346;28;20050;-75
2021/05/02 02:25:49;;;;;;;;;;;16.40;58.90;;;;;;1049926;28;19912;-75
2021/05/02 02:26:26;;;;;;;;;;;16.30;58.70;;;;;;1049619;28;20234;-76
2021/05/02 02:26:57;;;;;;;;;;;16.30;58.90;;;;;;1042253;28;19908;-76
2021/05/02 02:27:29;;;;;;;;;;;16.30;59.00;;;;;;1028714;28;19921;-76
2021/05/02 02:28:03;;;;;;;;;;;16.30;59.00;;;;;;1028806;28;19910;-76
2021/05/02 02:28:36;;;;;;;;;;;16.30;59.20;;;;;;1030394;28;19914;-76
2021/05/02 02:29:08;;;;;;;;;;;16.20;59.30;;;;;;1032387;28;19914;-76
2021/05/02 02:29:48;;;;;;;;;;;16.20;59.20;;;;;;1032921;28;19949;-76
2021/05/02 02:30:19;;;;;;;;;;;16.20;59.30;;;;;;1052620;28;19994;-76
2021/05/02 02:30:56;;;;;;;;;;;16.20;59.40;;;;;;1053817;28;19987;-76
2021/05/02 02:31:31;;;;;;;;;;;16.20;59.40;;;;;;1052210;28;19909;-76
2021/05/02 02:32:04;;;;;;;;;;;16.20;59.40;;;;;;1044987;28;19912;-75
2021/05/02 02:32:39;;;;;;;;;;;16.10;59.40;;;;;;1032660;28;20068;-76
2021/05/02 02:33:11;;;;;;;;;;;16.20;59.50;;;;;;1032674;28;19906;-75
2021/05/02 02:33:42;;;;;;;;;;;16.10;59.70;;;;;;1032702;28;19906;-76
2021/05/02 02:34:15;;;;;;;;;;;16.00;59.70;;;;;;1032504;28;20251;-75
2021/05/02 02:34:47;;;;;;;;;;;16.00;60.40;;;;;;1032745;28;20339;-76
2021/05/02 02:35:20;;;;;;;;;;;16.00;60.00;;;;;;1032938;28;20387;-76
2021/05/02 02:35:53;;;;;;;;;;;15.90;60.00;;;;;;1033060;28;20341;-77
2021/05/02 02:36:24;;;;;;;;;;;15.90;60.20;;;;;;1032582;28;19906;-76
2021/05/02 02:36:55;;;;;;;;;;;15.90;60.30;;;;;;1032748;28;19916;-75
2021/05/02 02:37:27;;;;;;;;;;;15.90;60.30;;;;;;1032882;28;19942;-76
2021/05/02 02:37:58;;;;;;;;;;;15.90;60.20;;;;;;1031813;28;20339;-76
2021/05/02 02:38:29;;;;;;;;;;;15.90;60.70;;;;;;1030852;28;19941;-76
2021/05/02 02:39:00;;;;;;;;;;;15.90;60.10;;;;;;1032102;28;19921;-77
2021/05/02 02:39:32;;;;;;;;;;;15.90;60.10;;;;;;1056051;28;19915;-76
2021/05/02 02:40:04;;;;;;;;;;;15.90;60.20;;;;;;1057835;28;20286;-75
2021/05/02 02:40:36;;;;;;;;;;;15.80;60.40;;;;;;1057637;28;20267;-76
2021/05/02 02:41:07;;;;;;;;;;;15.80;60.40;;;;;;1052785;28;19908;-77
2021/05/02 02:41:39;;;;;;;;;;;15.80;60.60;;;;;;1030479;28;19933;-77
2021/05/02 02:42:12;;;;;;;;;;;15.80;60.70;;;;;;1029833;28;20478;-76
2021/05/02 02:42:46;;;;;;;;;;;15.80;60.60;;;;;;1035582;28;20560;-77
2021/05/02 02:43:24;;;;;;;;;;;15.70;60.70;;;;;;1036743;28;19909;-76
2021/05/02 02:43:56;;;;;;;;;;;15.60;60.80;;;;;;1036843;28;19993;-75
2021/05/02 02:44:28;;;;;;;;;;;15.60;60.90;;;;;;1032998;28;19906;-76
2021/05/02 02:45:02;;;;;;;;;;;15.60;61.00;;;;;;1029111;28;20320;-76
2021/05/02 02:45:34;;;;;;;;;;;15.60;60.90;;;;;;1029046;28;19936;-76
2021/05/02 02:46:10;;;;;;;;;;;15.60;60.80;;;;;;1028683;28;19989;-76
2021/05/02 02:46:48;;;;;;;;;;;15.60;60.90;;;;;;1055434;28;20016;-76
2021/05/02 02:47:22;;;;;;;;;;;15.60;60.90;;;;;;1054627;28;19965;-75
2021/05/02 02:47:57;;;;;;;;;;;15.60;61.00;;;;;;1057549;28;20329;-75
2021/05/02 02:48:28;;;;;;;;;;;15.60;60.90;;;;;;1042534;28;19908;-75
2021/05/02 02:49:00;;;;;;;;;;;15.60;61.40;;;;;;1029047;28;19906;-75
2021/05/02 02:49:32;;;;;;;;;;;15.60;60.90;;;;;;1032076;28;19910;-75
2021/05/02 02:50:08;;;;;;;;;;;15.60;60.90;;;;;;1029936;28;19906;-75
2021/05/02 02:50:40;;;;;;;;;;;15.60;61.00;;;;;;1029767;28;20290;-75
2021/05/02 02:51:13;;;;;;;;;;;15.50;60.90;;;;;;1031222;28;19906;-75
2021/05/02 02:51:45;;;;;;;;;;;15.50;60.90;;;;;;1025990;28;19976;-75
2021/05/02 02:52:19;;;;;;;;;;;15.50;61.00;;;;;;1028415;28;19982;-75
2021/05/02 02:52:54;;;;;;;;;;;15.50;61.10;;;;;;1029309;28;19924;-75
2021/05/02 02:53:29;;;;;;;;;;;15.50;61.30;;;;;;1028777;28;19918;-75
2021/05/02 02:54:01;;;;;;;;;;;15.50;61.20;;;;;;1028908;28;20014;-75
2021/05/02 02:54:32;;;;;;;;;;;15.40;61.30;;;;;;1028478;28;20008;-75
2021/05/02 02:55:05;;;;;;;;;;;15.40;61.30;;;;;;1025151;28;20348;-74
2021/05/02 02:55:38;;;;;;;;;;;15.40;61.40;;;;;;1024209;28;19918;-75
2021/05/02 02:56:12;;;;;;;;;;;15.40;61.40;;;;;;1024841;28;19911;-75
2021/05/02 02:56:45;;;;;;;;;;;15.40;61.40;;;;;;1025704;28;19922;-75
2021/05/02 02:57:19;;;;;;;;;;;15.40;61.40;;;;;;1030039;28;20337;-75
2021/05/02 02:58:00;;;;;;;;;;;15.40;61.40;;;;;;1028734;28;19922;-75
2021/05/02 02:58:35;;;;;;;;;;;15.40;61.50;;;;;;1030342;28;19914;-75
2021/05/02 02:59:12;;;;;;;;;;;15.30;61.60;;;;;;1032721;28;19918;-75
2021/05/02 02:59:43;;;;;;;;;;;15.30;61.70;;;;;;1031098;28;20017;-75
2021/05/02 03:00:17;;;;;;;;;;;15.40;61.70;;;;;;1032731;28;20342;-75
2021/05/02 03:00:48;;;;;;;;;;;15.30;61.80;;;;;;1032029;28;19914;-75
2021/05/02 03:01:20;;;;;;;;;;;15.30;62.00;;;;;;1032621;28;19914;-75
2021/05/02 03:01:54;;;;;;;;;;;15.20;62.00;;;;;;1032138;28;20248;-75
2021/05/02 03:02:25;;;;;;;;;;;15.20;62.10;;;;;;1032043;28;19933;-75
2021/05/02 03:03:02;;;;;;;;;;;15.30;62.20;;;;;;1049993;28;19908;-75
2021/05/02 03:03:35;;;;;;;;;;;15.30;62.10;;;;;;1051418;28;19916;-76
2021/05/02 03:04:06;;;;;;;;;;;15.30;62.10;;;;;;1050083;28;19919;-75
2021/05/02 03:04:39;;;;;;;;;;;15.20;62.10;;;;;;1046345;28;19948;-75
2021/05/02 03:05:13;;;;;;;;;;;15.20;62.10;;;;;;1028283;28;20017;-74
2021/05/02 03:05:45;;;;;;;;;;;15.20;62.00;;;;;;1054763;28;19918;-75
2021/05/02 03:06:16;;;;;;;;;;;15.30;62.00;;;;;;1052666;28;20364;-75
2021/05/02 03:06:50;;;;;;;;;;;15.20;62.00;;;;;;1047014;28;19921;-75
2021/05/02 03:07:22;;;;;;;;;;;15.20;62.10;;;;;;1042394;28;20308;-75
2021/05/02 03:07:53;;;;;;;;;;;15.20;62.20;;;;;;1024676;28;19910;-75
2021/05/02 03:08:25;;;;;;;;;;;15.20;62.20;;;;;;1025338;28;19954;-75
2021/05/02 03:08:56;;;;;;;;;;;15.10;62.20;;;;;;1029092;28;19944;-76
2021/05/02 03:09:28;;;;;;;;;;;15.20;62.20;;;;;;1049271;28;20219;-75
2021/05/02 03:09:59;;;;;;;;;;;15.10;62.20;;;;;;1046117;28;19975;-75
2021/05/02 03:10:30;;;;;;;;;;;15.20;62.20;;;;;;1049711;28;19939;-75
2021/05/02 03:11:02;;;;;;;;;;;15.20;62.20;;;;;;1047424;28;19908;-75
2021/05/02 03:11:33;;;;;;;;;;;15.20;62.10;;;;;;1031273;28;19921;-76